Time;durP1;ratioP1;P1;durP2;ratioP2;P2;SDS_P1;SDS_P2;PMS_P1;PMS_P2;Temp;Humidity;BMP_temperature;BMP_pressure;BME280_temperature;BME280_humidity;BME280_pressure;Samples;Min_cycle;Max_cycle;Signal;HPM_P1;HPM_P2
2022/08/24 00:00:54;;;;;;;11.15;9.50;;;;;;;;;;5071288;28;20103;-80
2022/08/24 00:03:19;;;;;;;10.40;8.77;;;;;;;;;;5072240;28;20473;-79
2022/08/24 00:05:45;;;;;;;12.73;10.05;;;;;;;;;;5072426;28;20035;-81
2022/08/24 00:08:10;;;;;;;11.52;9.38;;;;;;;;;;5073904;28;20020;-80
2022/08/24 00:10:36;;;;;;;11.60;8.70;;;;;;;;;;5076541;28;20112;-80
2022/08/24 00:13:01;;;;;;;12.00;10.80;;;;;;;;;;5075184;28;20396;-80
2022/08/24 00:15:27;;;;;;;11.20;10.00;;;;;;;;;;5076152;28;20029;-75
2022/08/24 00:17:53;;;;;;;11.10;9.93;;;;;;;;;;5076538;28;20388;-81
2022/08/24 00:20:18;;;;;;;10.93;9.73;;;;;;;;;;5074884;28;20028;-75
2022/08/24 00:22:44;;;;;;;12.38;10.43;;;;;;;;;;5075073;28;20477;-79
2022/08/24 00:25:11;;;;;;;10.27;9.23;;;;;;;;;;5076256;28;20557;-80
2022/08/24 00:27:38;;;;;;;10.48;9.32;;;;;;;;;;5075179;28;20017;-79
2022/08/24 00:30:07;;;;;;;11.30;8.40;;;;;;;;;;5074629;28;20477;-75
2022/08/24 00:32:36;;;;;;;9.68;8.40;;;;;;;;;;5076017;28;20024;-80
2022/08/24 00:35:06;;;;;;;10.27;8.40;;;;;;;;;;5075833;28;20119;-80
2022/08/24 00:37:32;;;;;;;10.30;9.05;;;;;;;;;;5074967;28;20059;-75
2022/08/24 00:39:58;;;;;;;12.45;9.77;;;;;;;;;;5075802;28;20013;-75
2022/08/24 00:42:24;;;;;;;10.50;9.43;;;;;;;;;;5075996;28;20469;-76
2022/08/24 00:44:49;;;;;;;13.02;10.30;;;;;;;;;;5075567;28;20028;-80
2022/08/24 00:47:32;;;;;;;12.48;10.88;;;;;;;;;;5075973;28;20385;-75
2022/08/24 00:50:03;;;;;;;11.02;9.95;;;;;;;;;;5075754;28;20018;-79
2022/08/24 00:52:46;;;;;;;10.93;9.50;;;;;;;;;;5075921;28;20037;-81
2022/08/24 00:55:29;;;;;;;11.10;9.45;;;;;;;;;;5075577;28;20451;-75
2022/08/24 00:58:00;;;;;;;12.75;10.60;;;;;;;;;;5074381;28;20029;-75
2022/08/24 01:00:32;;;;;;;13.15;9.88;;;;;;;;;;5074044;28;20477;-77
2022/08/24 01:03:03;;;;;;;12.20;9.40;;;;;;;;;;5075322;28;20081;-80
2022/08/24 01:05:30;;;;;;;14.05;10.18;;;;;;;;;;5075146;28;20032;-75
2022/08/24 01:07:56;;;;;;;9.40;8.40;;;;;;;;;;5075426;28;20099;-81
2022/08/24 01:10:24;;;;;;;8.90;7.80;;;;;;;;;;5074578;28;20020;-81
2022/08/24 01:12:55;;;;;;;9.85;7.95;;;;;;;;;;5074791;28;20036;-75
2022/08/24 01:15:21;;;;;;;10.25;9.15;;;;;;;;;;5066262;28;20033;-74
2022/08/24 01:20:32;;;;;;;10.73;8.95;;;;;;;;;;5074145;28;20488;-79
2022/08/24 01:23:10;;;;;;;9.98;8.93;;;;;;;;;;5057490;28;20032;-74
2022/08/24 01:25:37;;;;;;;9.68;8.68;;;;;;;;;;5073849;28;20020;-75
2022/08/24 01:28:09;;;;;;;10.90;8.75;;;;;;;;;;5075021;28;20032;-76
2022/08/24 01:30:35;;;;;;;9.23;8.25;;;;;;;;;;5075408;28;20111;-81
2022/08/24 01:33:04;;;;;;;10.32;9.23;;;;;;;;;;5073453;28;20124;-75
2022/08/24 01:35:30;;;;;;;12.30;9.45;;;;;;;;;;5072439;28;20125;-81
2022/08/24 01:37:59;;;;;;;9.85;8.85;;;;;;;;;;5074954;28;20032;-75
2022/08/24 01:40:32;;;;;;;10.77;9.63;;;;;;;;;;5074514;28;20429;-81
2022/08/24 01:42:57;;;;;;;;;;;;;;;;;;5066828;28;20077;-79
2022/08/24 01:45:22;;;;;;;9.63;8.20;;;;;;;;;;5073982;28;20279;-81
2022/08/24 01:47:48;;;;;;;8.85;7.95;;;;;;;;;;5075105;28;20013;-74
2022/08/24 01:50:14;;;;;;;9.98;8.50;;;;;;;;;;5074500;28;20476;-81
2022/08/24 01:52:42;;;;;;;10.30;8.32;;;;;;;;;;5073573;28;20082;-80
2022/08/24 01:55:10;;;;;;;9.63;8.63;;;;;;;;;;5072880;28;20024;-75
2022/08/24 01:57:35;;;;;;;12.02;10.05;;;;;;;;;;5074643;28;20074;-75
2022/08/24 02:00:05;;;;;;;10.70;9.60;;;;;;;;;;5073146;28;20491;-78
2022/08/24 02:02:31;;;;;;;11.48;8.80;;;;;;;;;;5073269;28;20028;-80
2022/08/24 02:04:56;;;;;;;9.60;8.60;;;;;;;;;;5056200;28;20028;-76
2022/08/24 02:07:22;;;;;;;10.23;8.95;;;;;;;;;;5073322;28;20073;-80
2022/08/24 02:09:49;;;;;;;10.50;9.13;;;;;;;;;;5074429;28;20103;-80
2022/08/24 02:12:15;;;;;;;9.98;8.93;;;;;;;;;;5074217;28;20037;-75
2022/08/24 02:14:40;;;;;;;11.60;9.50;;;;;;;;;;5072814;28;20040;-79
2022/08/24 02:17:07;;;;;;;11.93;9.57;;;;;;;;;;5056221;28;20109;-76
2022/08/24 02:19:34;;;;;;;11.27;10.13;;;;;;;;;;5073892;28;20425;-80
2022/08/24 02:21:59;;;;;;;10.93;9.85;;;;;;;;;;5072785;28;20514;-80
2022/08/24 02:24:27;;;;;;;11.60;9.93;;;;;;;;;;5073996;28;20487;-75
2022/08/24 02:26:54;;;;;;;14.00;9.10;;;;;;;;;;5072647;28;20054;-75
2022/08/24 02:29:19;;;;;;;10.27;8.90;;;;;;;;;;5074115;28;20536;-75
2022/08/24 02:31:44;;;;;;;12.02;10.05;;;;;;;;;;5072206;28;20111;-74
2022/08/24 02:34:11;;;;;;;10.73;9.63;;;;;;;;;;5072206;28;20094;-79
2022/08/24 02:36:37;;;;;;;11.10;9.80;;;;;;;;;;5072084;28;20055;-80
2022/08/24 02:39:03;;;;;;;9.85;8.85;;;;;;;;;;5055861;28;20119;-81
2022/08/24 02:41:28;;;;;;;10.18;9.07;;;;;;;;;;5073494;28;20107;-81
2022/08/24 02:43:55;;;;;;;10.95;9.52;;;;;;;;;;5073703;28;20034;-80
2022/08/24 02:46:24;;;;;;;11.10;9.23;;;;;;;;;;5073606;28;20016;-81
2022/08/24 02:48:53;;;;;;;14.45;9.48;;;;;;;;;;5072400;28;20103;-80
2022/08/24 02:51:27;;;;;;;11.10;10.00;;;;;;;;;;5072228;28;20119;-81
2022/08/24 02:53:53;;;;;;;10.30;8.93;;;;;;;;;;5072179;28;20039;-81
2022/08/24 02:56:19;;;;;;;16.13;9.80;;;;;;;;;;5071906;28;20388;-80
2022/08/24 02:58:45;;;;;;;10.32;8.75;;;;;;;;;;5073119;28;20033;-80
2022/08/24 03:01:12;;;;;;;11.98;8.98;;;;;;;;;;5073476;28;20024;-74
2022/08/24 03:03:38;;;;;;;9.48;8.45;;;;;;;;;;5072142;28;20023;-74
2022/08/24 03:06:06;;;;;;;10.50;9.40;;;;;;;;;;5073255;28;20024;-80
2022/08/24 03:08:32;;;;;;;12.32;9.68;;;;;;;;;;5071903;28;20126;-80
2022/08/24 03:10:59;;;;;;;11.57;9.68;;;;;;;;;;5071718;28;20056;-75
2022/08/24 03:13:26;;;;;;;10.52;9.38;;;;;;;;;;5073088;28;20025;-80
2022/08/24 03:15:56;;;;;;;10.13;9.05;;;;;;;;;;5072807;28;20020;-81
2022/08/24 03:18:24;;;;;;;10.38;8.68;;;;;;;;;;5071859;28;20036;-75
2022/08/24 03:20:50;;;;;;;26.55;11.07;;;;;;;;;;5071528;28;20162;-76
2022/08/24 03:23:15;;;;;;;11.48;9.52;;;;;;;;;;5073079;28;20533;-75
2022/08/24 03:25:41;;;;;;;11.13;9.98;;;;;;;;;;5071491;28;20047;-75
2022/08/24 03:28:06;;;;;;;12.30;10.52;;;;;;;;;;5071853;28;20032;-81
2022/08/24 03:30:31;;;;;;;12.32;9.95;;;;;;;;;;5073000;28;20032;-76
2022/08/24 03:32:57;;;;;;;12.10;9.77;;;;;;;;;;5073021;28;20082;-80
2022/08/24 03:35:22;;;;;;;10.80;9.65;;;;;;;;;;5070918;28;20053;-81
2022/08/24 03:37:49;;;;;;;11.68;10.48;;;;;;;;;;5071568;28;20480;-75
2022/08/24 03:40:15;;;;;;;11.13;9.93;;;;;;;;;;5071498;28;20123;-81
2022/08/24 03:42:40;;;;;;;11.27;10.05;;;;;;;;;;5070639;28;20119;-80
2022/08/24 03:45:07;;;;;;;13.43;10.95;;;;;;;;;;5071389;28;20067;-81
2022/08/24 03:47:32;;;;;;;12.40;11.10;;;;;;;;;;5071255;28;20065;-75
2022/08/24 03:49:57;;;;;;;11.90;9.90;;;;;;;;;;5071270;28;20036;-80
2022/08/24 03:52:23;;;;;;;19.38;9.75;;;;;;;;;;5071367;28;20434;-80
2022/08/24 03:54:48;;;;;;;13.23;11.25;;;;;;;;;;5072168;28;20037;-80
2022/08/24 03:57:14;;;;;;;11.27;9.43;;;;;;;;;;5071208;28;20392;-80
2022/08/24 03:59:40;;;;;;;11.90;10.15;;;;;;;;;;5071239;28;20035;-80
2022/08/24 04:02:06;;;;;;;12.10;10.18;;;;;;;;;;5072597;28;20023;-74
2022/08/24 04:04:32;;;;;;;13.85;11.45;;;;;;;;;;5071268;28;20024;-81
2022/08/24 04:06:58;;;;;;;13.05;10.82;;;;;;;;;;5071014;28;20119;-81
2022/08/24 04:09:23;;;;;;;11.45;9.88;;;;;;;;;;5072108;28;20031;-81
2022/08/24 04:11:49;;;;;;;12.80;10.32;;;;;;;;;;5071404;28;20546;-79
2022/08/24 04:14:16;;;;;;;11.52;9.73;;;;;;;;;;5071504;28;20138;-76
2022/08/24 04:16:41;;;;;;;10.27;9.15;;;;;;;;;;5072363;28;20488;-79
2022/08/24 04:19:07;;;;;;;11.32;9.60;;;;;;;;;;5071070;28;20056;-79
2022/08/24 04:21:35;;;;;;;11.05;9.75;;;;;;;;;;5071020;28;20379;-75
2022/08/24 04:24:02;;;;;;;11.93;9.93;;;;;;;;;;5072319;28;20538;-79
2022/08/24 04:26:29;;;;;;;11.63;9.60;;;;;;;;;;5050958;28;20021;-81
2022/08/24 04:28:56;;;;;;;10.00;8.77;;;;;;;;;;5070700;28;20024;-76
2022/08/24 04:31:22;;;;;;;9.02;8.07;;;;;;;;;;5072317;28;20033;-80
2022/08/24 04:33:51;;;;;;;9.80;8.52;;;;;;;;;;5072301;28;20020;-75
2022/08/24 04:36:19;;;;;;;9.55;8.55;;;;;;;;;;5070217;28;20040;-75
2022/08/24 04:38:45;;;;;;;8.93;7.72;;;;;;;;;;5072032;28;20024;-75
2022/08/24 04:41:12;;;;;;;10.88;9.65;;;;;;;;;;5072246;28;20045;-80
2022/08/24 04:43:38;;;;;;;12.63;10.00;;;;;;;;;;5071096;28;20021;-80
2022/08/24 04:46:06;;;;;;;9.43;8.45;;;;;;;;;;5070958;28;20424;-79
2022/08/24 04:48:33;;;;;;;9.98;8.52;;;;;;;;;;5070932;28;20499;-75
2022/08/24 04:51:06;;;;;;;10.07;8.95;;;;;;;;;;5072030;28;20385;-81
2022/08/24 04:53:33;;;;;;;9.70;8.23;;;;;;;;;;5061285;28;20111;-75
2022/08/24 04:55:59;;;;;;;10.38;9.23;;;;;;;;;;5075087;28;20025;-75
2022/08/24 04:58:26;;;;;;;10.85;8.60;;;;;;;;;;5074505;28;20019;-81
2022/08/24 05:00:51;;;;;;;9.13;8.02;;;;;;;;;;5075203;28;20523;-75
2022/08/24 05:03:16;;;;;;;9.65;8.40;;;;;;;;;;5074327;28;20052;-81
2022/08/24 05:05:45;;;;;;;12.18;9.13;;;;;;;;;;5074287;28;20064;-74
2022/08/24 05:08:12;;;;;;;10.70;9.10;;;;;;;;;;5075552;28;20086;-81
2022/08/24 05:10:39;;;;;;;9.52;8.32;;;;;;;;;;5069234;28;20032;-81
2022/08/24 05:13:06;;;;;;;9.82;8.27;;;;;;;;;;5075219;28;20046;-81
2022/08/24 05:15:32;;;;;;;9.20;7.88;;;;;;;;;;5075169;28;20094;-80
2022/08/24 05:17:58;;;;;;;9.82;8.75;;;;;;;;;;5070891;28;20380;-81
2022/08/24 05:20:23;;;;;;;10.20;9.07;;;;;;;;;;5073934;28;20021;-81
2022/08/24 05:22:52;;;;;;;11.45;9.52;;;;;;;;;;5074119;28;20032;-80
2022/08/24 05:25:17;;;;;;;12.23;9.55;;;;;;;;;;5066447;28;20067;-81
2022/08/24 05:27:43;;;;;;;9.50;8.48;;;;;;;;;;5073894;28;20049;-75
2022/08/24 05:30:09;;;;;;;9.07;8.10;;;;;;;;;;5073775;28;20063;-76
2022/08/24 05:32:35;;;;;;;10.70;9.45;;;;;;;;;;5073394;28;20021;-75
2022/08/24 05:35:03;;;;;;;9.73;8.73;;;;;;;;;;5073547;28;20053;-78
2022/08/24 05:37:30;;;;;;;10.60;9.35;;;;;;;;;;5073881;28;20137;-75
2022/08/24 05:39:55;;;;;;;9.35;8.23;;;;;;;;;;5073623;28;20603;-74
2022/08/24 05:42:21;;;;;;;9.75;8.73;;;;;;;;;;5074977;28;20115;-81
2022/08/24 05:44:46;;;;;;;11.15;9.52;;;;;;;;;;5073471;28;20032;-80
2022/08/24 05:47:12;;;;;;;12.13;9.77;;;;;;;;;;5073194;28;20376;-80
2022/08/24 05:49:37;;;;;;;11.57;9.55;;;;;;;;;;5073177;28;20105;-75
2022/08/24 05:52:03;;;;;;;11.50;10.30;;;;;;;;;;5073164;28;20020;-75
2022/08/24 05:54:28;;;;;;;13.30;11.73;;;;;;;;;;5073175;28;20404;-79
2022/08/24 05:56:56;;;;;;;12.98;11.55;;;;;;;;;;5072932;28;20031;-80
2022/08/24 05:59:22;;;;;;;12.27;10.65;;;;;;;;;;5072962;28;20416;-81
2022/08/24 06:01:47;;;;;;;13.07;10.65;;;;;;;;;;5073846;28;20416;-75
2022/08/24 06:04:13;;;;;;;12.40;9.88;;;;;;;;;;5072479;28;20028;-81
2022/08/24 06:06:38;;;;;;;9.60;8.60;;;;;;;;;;5072114;28;20546;-75
2022/08/24 06:09:04;;;;;;;12.50;10.70;;;;;;;;;;5072854;28;20054;-75
2022/08/24 06:11:33;;;;;;;11.50;10.20;;;;;;;;;;5073089;28;20534;-74
2022/08/24 06:14:18;;;;;;;11.40;10.20;;;;;;;;;;5072544;28;20400;-82
2022/08/24 06:16:46;;;;;;;11.63;10.43;;;;;;;;;;5058955;28;20044;-75
2022/08/24 06:19:14;;;;;;;11.32;9.85;;;;;;;;;;5072362;28;20032;-80
2022/08/24 06:21:41;;;;;;;11.00;9.13;;;;;;;;;;5072973;28;20066;-76
2022/08/24 06:24:07;;;;;;;11.75;10.52;;;;;;;;;;5073794;28;20036;-76
2022/08/24 06:29:19;;;;;;;10.05;8.98;;;;;;;;;;5064838;28;20081;-77
2022/08/24 06:31:47;;;;;;;12.90;10.93;;;;;;;;;;5072636;28;20021;-75
2022/08/24 06:34:15;;;;;;;12.57;10.38;;;;;;;;;;5072231;28;20063;-74
2022/08/24 06:36:43;;;;;;;10.68;7.95;;;;;;;;;;5073364;28;20032;-79
2022/08/24 06:39:09;;;;;;;9.48;8.00;;;;;;;;;;5072395;28;20503;-80
2022/08/24 06:41:37;;;;;;;13.25;8.98;;;;;;;;;;5072364;28;20029;-75
2022/08/24 06:44:03;;;;;;;19.38;16.42;;;;;;;;;;5073501;28;20032;-75
2022/08/24 06:46:29;;;;;;;26.73;19.77;;;;;;;;;;5073714;28;20017;-75
2022/08/24 06:48:55;;;;;;;28.88;19.75;;;;;;;;;;5073646;28;20137;-75
2022/08/24 06:51:21;;;;;;;33.58;20.55;;;;;;;;;;5070620;28;20020;-74
2022/08/24 06:53:49;;;;;;;28.15;21.10;;;;;;;;;;5073336;28;20056;-74
2022/08/24 06:56:15;;;;;;;27.48;19.20;;;;;;;;;;5072156;28;20086;-80
2022/08/24 06:58:41;;;;;;;29.38;19.02;;;;;;;;;;5072181;28;20036;-75
2022/08/24 07:01:16;;;;;;;21.70;16.08;;;;;;;;;;5072059;28;20028;-75
2022/08/24 07:03:43;;;;;;;17.70;13.90;;;;;;;;;;5073119;28;20029;-75
2022/08/24 07:06:11;;;;;;;16.23;12.80;;;;;;;;;;5073389;28;20024;-80
2022/08/24 07:08:37;;;;;;;15.68;12.57;;;;;;;;;;5055817;28;20021;-74
2022/08/24 07:11:04;;;;;;;17.73;12.60;;;;;;;;;;5073021;28;20392;-81
2022/08/24 07:13:30;;;;;;;17.58;12.15;;;;;;;;;;5073056;28;20395;-81
2022/08/24 07:15:57;;;;;;;18.30;12.85;;;;;;;;;;5071814;28;20153;-80
2022/08/24 07:18:23;;;;;;;16.20;12.45;;;;;;;;;;5072092;28;20038;-74
2022/08/24 07:20:51;;;;;;;14.52;12.38;;;;;;;;;;5071880;28;20047;-79
2022/08/24 07:23:17;;;;;;;15.57;11.52;;;;;;;;;;5071309;28;20016;-75
2022/08/24 07:25:44;;;;;;;15.27;11.35;;;;;;;;;;5071730;28;20031;-80
2022/08/24 07:28:11;;;;;;;12.02;10.02;;;;;;;;;;5054913;28;20221;-75
2022/08/24 07:30:37;;;;;;;15.32;10.90;;;;;;;;;;5072916;28;20063;-74
2022/08/24 07:33:03;;;;;;;11.93;9.30;;;;;;;;;;5071442;28;20021;-75
2022/08/24 07:35:31;;;;;;;15.15;9.95;;;;;;;;;;5071679;28;20051;-82
2022/08/24 07:37:57;;;;;;;12.18;9.80;;;;;;;;;;5071633;28;20059;-82
2022/08/24 07:40:24;;;;;;;13.00;9.82;;;;;;;;;;5071338;28;20477;-82
2022/08/24 07:42:51;;;;;;;14.68;9.88;;;;;;;;;;5073003;28;20020;-75
2022/08/24 07:45:17;;;;;;;13.32;9.00;;;;;;;;;;5072356;28;20035;-75
2022/08/24 07:47:43;;;;;;;11.98;8.48;;;;;;;;;;5072653;28;20020;-75
2022/08/24 07:50:10;;;;;;;11.07;8.38;;;;;;;;;;5072595;28;20133;-76
2022/08/24 07:52:36;;;;;;;10.75;8.00;;;;;;;;;;5072665;28;20031;-76
2022/08/24 07:55:01;;;;;;;12.43;8.63;;;;;;;;;;5062454;28;20124;-77
2022/08/24 07:57:27;;;;;;;11.68;9.70;;;;;;;;;;5068085;28;20025;-76
2022/08/24 07:59:52;;;;;;;13.95;8.55;;;;;;;;;;5071244;28;20499;-75
2022/08/24 08:02:18;;;;;;;9.90;7.53;;;;;;;;;;5072707;28;20020;-75
2022/08/24 08:04:43;;;;;;;12.85;7.68;;;;;;;;;;5072436;28;20478;-75
2022/08/24 08:07:09;;;;;;;10.43;7.38;;;;;;;;;;5072224;28;20063;-82
2022/08/24 08:09:39;;;;;;;12.13;8.25;;;;;;;;;;5070550;28;20393;-79
2022/08/24 08:12:05;;;;;;;11.57;7.45;;;;;;;;;;5054560;28;20032;-80
2022/08/24 08:14:31;;;;;;;9.95;6.63;;;;;;;;;;5062831;28;20055;-82
2022/08/24 08:16:56;;;;;;;8.40;5.90;;;;;;;;;;5071165;28;20028;-75
2022/08/24 08:19:21;;;;;;;8.30;6.00;;;;;;;;;;5070970;28;20029;-82
2022/08/24 08:24:35;;;;;;;8.60;5.20;;;;;;;;;;5069766;28;20523;-75
2022/08/24 08:27:00;;;;;;;9.18;5.60;;;;;;;;;;5072294;28;20096;-76
2022/08/24 08:29:26;;;;;;;8.25;5.10;;;;;;;;;;5074428;28;20107;-75
2022/08/24 08:31:52;;;;;;;8.57;4.80;;;;;;;;;;5075046;28;20560;-81
2022/08/24 08:34:18;;;;;;;8.80;5.80;;;;;;;;;;5076082;28;20052;-80
2022/08/24 08:36:44;;;;;;;8.68;4.78;;;;;;;;;;5074862;28;20388;-81
2022/08/24 08:39:13;;;;;;;8.10;5.35;;;;;;;;;;5075564;28;20074;-76
2022/08/24 08:41:57;;;;;;;8.45;4.78;;;;;;;;;;5074710;28;20111;-76
2022/08/24 08:44:44;;;;;;;7.95;4.78;;;;;;;;;;5072848;28;20028;-76
2022/08/24 08:47:44;;;;;;;7.03;3.80;;;;;;;;;;5071850;28;20024;-76
2022/08/24 08:50:15;;;;;;;7.03;3.78;;;;;;;;;;5074293;28;20116;-82
2022/08/24 08:53:18;;;;;;;5.57;3.60;;;;;;;;;;5076187;28;20064;-76
2022/08/24 08:56:08;;;;;;;6.03;3.47;;;;;;;;;;5074361;28;20082;-81
2022/08/24 08:59:00;;;;;;;11.43;3.85;;;;;;;;;;5074708;28;20392;-82
2022/08/24 09:01:38;;;;;;;8.88;4.32;;;;;;;;;;5074000;28;20017;-75
2022/08/24 09:04:28;;;;;;;5.25;3.22;;;;;;;;;;5069579;28;20024;-81
2022/08/24 09:07:08;;;;;;;6.20;2.90;;;;;;;;;;5075446;28;20066;-75
2022/08/24 09:09:58;;;;;;;4.95;3.30;;;;;;;;;;5074977;28;20024;-81
2022/08/24 09:12:52;;;;;;;6.40;3.78;;;;;;;;;;5074174;28;20430;-75
2022/08/24 09:15:36;;;;;;;5.13;3.00;;;;;;;;;;5075114;28;20082;-76
2022/08/24 09:18:40;;;;;;;4.35;3.45;;;;;;;;;;5075047;28;20123;-81
2022/08/24 09:21:28;;;;;;;4.70;3.22;;;;;;;;;;5074910;28;20027;-82
2022/08/24 09:24:11;;;;;;;4.85;3.30;;;;;;;;;;5075293;28;20171;-81
2022/08/24 09:26:49;;;;;;;4.32;3.50;;;;;;;;;;5075354;28;20143;-75
2022/08/24 09:29:22;;;;;;;6.07;3.20;;;;;;;;;;5073616;28;20059;-76
2022/08/24 09:32:02;;;;;;;6.05;3.90;;;;;;;;;;5073959;28;20078;-79
2022/08/24 09:34:52;;;;;;;6.38;3.50;;;;;;;;;;5073526;28;20033;-81
2022/08/24 09:37:50;;;;;;;6.15;2.72;;;;;;;;;;5074679;28;20107;-82
2022/08/24 09:40:35;;;;;;;5.68;2.90;;;;;;;;;;5073676;28;20397;-76
2022/08/24 09:43:42;;;;;;;4.78;2.97;;;;;;;;;;5073402;28;20029;-76
2022/08/24 09:46:37;;;;;;;4.47;2.70;;;;;;;;;;5073344;28;20568;-76
2022/08/24 09:49:34;;;;;;;4.78;2.75;;;;;;;;;;5063822;28;20024;-82
2022/08/24 09:52:19;;;;;;;4.75;2.72;;;;;;;;;;5064946;28;20040;-76
2022/08/24 09:55:07;;;;;;;3.60;2.30;;;;;;;;;;5073371;28;20621;-75
2022/08/24 09:58:11;;;;;;;6.30;3.63;;;;;;;;;;5061256;28;20048;-76
2022/08/24 10:00:46;;;;;;;6.38;3.40;;;;;;;;;;5072754;28;20021;-75
2022/08/24 10:03:33;;;;;;;7.55;5.03;;;;;;;;;;5073201;28;20178;-76
2022/08/24 10:06:06;;;;;;;4.47;3.03;;;;;;;;;;5074154;28;20030;-76
2022/08/24 10:08:46;;;;;;;5.38;2.92;;;;;;;;;;5074529;28;20484;-76
2022/08/24 10:11:41;;;;;;;4.45;2.55;;;;;;;;;;5066335;28;20031;-76
2022/08/24 10:14:38;;;;;;;5.70;2.28;;;;;;;;;;5072976;28;20035;-75
2022/08/24 10:17:43;;;;;;;4.15;2.28;;;;;;;;;;5062167;28;20052;-76
2022/08/24 10:20:23;;;;;;;3.13;2.17;;;;;;;;;;5065347;28;20040;-76
2022/08/24 10:23:16;;;;;;;4.32;2.70;;;;;;;;;;5072692;28;20032;-82
2022/08/24 10:26:13;;;;;;;4.88;2.47;;;;;;;;;;5074198;28;20033;-83
2022/08/24 10:28:38;;;;;;;3.20;1.92;;;;;;;;;;5072709;28;20522;-76
2022/08/24 10:31:08;;;;;;;4.18;1.90;;;;;;;;;;5072260;28;20107;-81
2022/08/24 10:33:42;;;;;;;3.50;2.10;;;;;;;;;;5072823;28;20048;-75
2022/08/24 10:37:01;;;;;;;3.70;2.05;;;;;;;;;;5072132;28;20451;-82
2022/08/24 10:40:05;;;;;;;5.85;1.83;;;;;;;;;;5040250;28;20384;-82
2022/08/24 10:46:08;;;;;;;1.92;1.30;;;;;;;;;;5070146;28;20464;-83
2022/08/24 10:48:44;;;;;;;2.03;0.98;;;;;;;;;;5072151;28;20074;-76
2022/08/24 10:51:34;;;;;;;1.90;1.20;;;;;;;;;;5073253;28;20023;-82
2022/08/24 10:54:01;;;;;;;2.05;1.27;;;;;;;;;;5072103;28;20025;-76
2022/08/24 10:56:59;;;;;;;2.75;1.23;;;;;;;;;;5073328;28;20017;-76
2022/08/24 10:59:42;;;;;;;1.92;1.00;;;;;;;;;;5072153;28;20028;-82
2022/08/24 11:02:32;;;;;;;1.20;0.80;;;;;;;;;;5073087;28;20059;-76
2022/08/24 11:05:04;;;;;;;1.40;0.82;;;;;;;;;;5061827;28;20059;-83
2022/08/24 11:07:31;;;;;;;2.67;0.85;;;;;;;;;;5073138;28;20027;-76
2022/08/24 11:10:00;;;;;;;2.10;1.00;;;;;;;;;;5071779;28;20138;-83
2022/08/24 11:12:43;;;;;;;1.48;0.90;;;;;;;;;;5071843;28;20062;-76
2022/08/24 11:15:09;;;;;;;;;;;;;;;;;;5072108;28;20032;-82
2022/08/24 11:17:35;;;;;;;2.35;1.15;;;;;;;;;;5071563;28;20315;-80
2022/08/24 11:20:01;;;;;;;1.63;1.20;;;;;;;;;;5072685;28;20082;-82
2022/08/24 11:22:31;;;;;;;2.22;1.05;;;;;;;;;;5072891;28;20480;-76
2022/08/24 11:25:00;;;;;;;1.80;1.02;;;;;;;;;;5073237;28;20493;-82
2022/08/24 11:27:46;;;;;;;2.47;1.02;;;;;;;;;;5072627;28;20063;-81
2022/08/24 11:30:24;;;;;;;1.30;0.90;;;;;;;;;;5071751;28;20475;-82
2022/08/24 11:32:56;;;;;;;2.03;1.02;;;;;;;;;;5071344;28;20098;-76
2022/08/24 11:35:30;;;;;;;1.93;0.93;;;;;;;;;;5072593;28;20048;-82
2022/08/24 11:38:05;;;;;;;3.00;1.00;;;;;;;;;;5071843;28;20077;-82
2022/08/24 11:40:37;;;;;;;1.70;1.00;;;;;;;;;;5071621;28;20124;-82
2022/08/24 11:43:11;;;;;;;2.33;1.05;;;;;;;;;;5073221;28;20089;-76
2022/08/24 11:46:12;;;;;;;1.17;0.90;;;;;;;;;;5071570;28;20481;-82
2022/08/24 11:49:11;;;;;;;1.30;0.70;;;;;;;;;;5071647;28;20473;-75
2022/08/24 11:51:42;;;;;;;2.03;0.88;;;;;;;;;;5069846;28;20028;-75
2022/08/24 11:54:29;;;;;;;1.70;1.00;;;;;;;;;;5071481;28;20097;-82
2022/08/24 11:57:07;;;;;;;1.95;0.95;;;;;;;;;;5062912;28;20031;-76
2022/08/24 11:59:41;;;;;;;1.83;0.90;;;;;;;;;;5072387;28;20055;-82
2022/08/24 12:02:14;;;;;;;1.02;0.80;;;;;;;;;;5071413;28;20477;-76
2022/08/24 12:04:57;;;;;;;3.20;0.88;;;;;;;;;;5075937;28;20028;-76
2022/08/24 12:07:40;;;;;;;1.40;0.90;;;;;;;;;;5078046;28;20024;-76
2022/08/24 12:10:13;;;;;;;1.25;0.80;;;;;;;;;;5077759;28;20162;-81
2022/08/24 12:12:51;;;;;;;1.10;0.70;;;;;;;;;;5079125;28;20412;-76
2022/08/24 12:16:10;;;;;;;1.35;0.68;;;;;;;;;;5078613;28;20497;-82
2022/08/24 12:19:04;;;;;;;3.63;1.38;;;;;;;;;;4999922;28;20398;-76
2022/08/24 12:21:33;;;;;;;1.55;0.88;;;;;;;;;;5017015;28;20029;-81
2022/08/24 12:24:07;;;;;;;1.45;0.95;;;;;;;;;;5065836;28;20086;-81
2022/08/24 12:26:46;;;;;;;2.08;0.93;;;;;;;;;;5079094;28;20016;-82
2022/08/24 12:29:15;;;;;;;3.15;0.80;;;;;;;;;;5077653;28;20459;-76
2022/08/24 12:32:17;;;;;;;1.88;0.80;;;;;;;;;;5078962;28;20028;-81
2022/08/24 12:34:57;;;;;;;1.27;0.77;;;;;;;;;;5059662;28;20048;-76
2022/08/24 12:37:31;;;;;;;3.17;0.90;;;;;;;;;;5078683;28;20078;-76
2022/08/24 12:40:24;;;;;;;1.30;0.90;;;;;;;;;;5078605;28;20383;-76
2022/08/24 12:43:13;;;;;;;1.23;0.93;;;;;;;;;;5079127;28;20028;-76
2022/08/24 12:45:39;;;;;;;1.35;0.90;;;;;;;;;;5063324;28;20025;-82
2022/08/24 12:48:34;;;;;;;1.60;0.93;;;;;;;;;;5077598;28;20028;-76
2022/08/24 12:51:28;;;;;;;1.13;0.75;;;;;;;;;;5049053;28;20114;-82
2022/08/24 12:54:15;;;;;;;2.05;0.90;;;;;;;;;;5058568;28;20523;-76
2022/08/24 12:57:10;;;;;;;2.05;0.95;;;;;;;;;;5069045;28;20035;-82
2022/08/24 12:59:45;;;;;;;1.65;1.17;;;;;;;;;;5077565;28;20035;-82
2022/08/24 13:02:13;;;;;;;3.35;1.35;;;;;;;;;;5078637;28;20039;-81
2022/08/24 13:04:52;;;;;;;2.38;1.75;;;;;;;;;;5077248;28;20392;-82
2022/08/24 13:07:17;;;;;;;3.42;1.80;;;;;;;;;;5077433;28;20358;-76
2022/08/24 13:10:08;;;;;;;2.13;1.60;;;;;;;;;;5077097;28;20036;-76
2022/08/24 13:12:42;;;;;;;3.55;1.70;;;;;;;;;;5072191;28;20044;-76
2022/08/24 13:15:26;;;;;;;3.60;1.70;;;;;;;;;;5077352;28;20024;-75
2022/08/24 13:18:15;;;;;;;3.03;1.70;;;;;;;;;;5075007;28;20556;-82
2022/08/24 13:20:43;;;;;;;3.25;1.60;;;;;;;;;;5061894;28;20470;-76
2022/08/24 13:23:12;;;;;;;2.92;1.60;;;;;;;;;;5074895;28;20481;-76
2022/08/24 13:25:46;;;;;;;2.40;1.60;;;;;;;;;;5074252;28;20052;-82
2022/08/24 13:28:27;;;;;;;3.15;1.80;;;;;;;;;;5073953;28;20021;-82
2022/08/24 13:30:55;;;;;;;2.03;1.38;;;;;;;;;;5074168;28;20119;-81
2022/08/24 13:33:33;;;;;;;3.88;1.50;;;;;;;;;;5073771;28;20086;-81
2022/08/24 13:36:30;;;;;;;2.50;1.70;;;;;;;;;;5069240;28;20045;-77
2022/08/24 13:39:14;;;;;;;4.30;1.65;;;;;;;;;;5066528;28;20059;-82
2022/08/24 13:41:59;;;;;;;3.08;1.60;;;;;;;;;;5068060;28;20065;-76
2022/08/24 13:44:55;;;;;;;1.60;1.30;;;;;;;;;;5063197;28;20016;-76
2022/08/24 13:47:33;;;;;;;3.65;1.40;;;;;;;;;;5051505;28;20459;-82
2022/08/24 13:50:10;;;;;;;2.55;1.40;;;;;;;;;;5073655;28;20063;-77
2022/08/24 13:53:21;;;;;;;2.85;1.30;;;;;;;;;;5074903;28;20506;-82
2022/08/24 13:56:09;;;;;;;2.75;1.10;;;;;;;;;;5074210;28;20039;-75
2022/08/24 13:58:48;;;;;;;2.17;1.20;;;;;;;;;;5073196;28;20103;-77
2022/08/24 14:01:32;;;;;;;4.00;1.60;;;;;;;;;;5073433;28;20032;-81
2022/08/24 14:04:01;;;;;;;2.95;1.30;;;;;;;;;;5073148;28;20052;-82
2022/08/24 14:06:59;;;;;;;3.30;1.40;;;;;;;;;;5074340;28;20027;-81
2022/08/24 14:09:50;;;;;;;2.65;1.40;;;;;;;;;;5070109;28;20039;-76
2022/08/24 14:12:33;;;;;;;2.85;1.30;;;;;;;;;;5060433;28;20020;-81
2022/08/24 14:15:22;;;;;;;4.32;1.55;;;;;;;;;;5067566;28;20020;-81
2022/08/24 14:18:09;;;;;;;3.30;1.70;;;;;;;;;;5073055;28;20048;-82
2022/08/24 14:21:11;;;;;;;2.83;1.50;;;;;;;;;;5074079;28;20545;-77
2022/08/24 14:23:44;;;;;;;3.10;1.75;;;;;;;;;;5074167;28;20020;-75
2022/08/24 14:26:32;;;;;;;3.70;1.60;;;;;;;;;;5072923;28;20024;-76
2022/08/24 14:29:18;;;;;;;2.22;1.40;;;;;;;;;;5064820;28;20085;-76
2022/08/24 14:31:59;;;;;;;2.67;1.42;;;;;;;;;;5072984;28;20078;-76
2022/08/24 14:34:35;;;;;;;3.30;1.63;;;;;;;;;;5072323;28;20480;-82
2022/08/24 14:37:13;;;;;;;1.98;1.40;;;;;;;;;;5073700;28;20107;-81
2022/08/24 14:39:57;;;;;;;2.40;1.48;;;;;;;;;;5066581;28;20085;-76
2022/08/24 14:42:45;;;;;;;2.15;1.30;;;;;;;;;;5073663;28;20064;-76
2022/08/24 14:45:29;;;;;;;3.35;1.45;;;;;;;;;;5068870;28;20029;-82
2022/08/24 14:47:57;;;;;;;2.60;1.70;;;;;;;;;;5073859;28;20025;-82
2022/08/24 14:50:39;;;;;;;2.83;1.63;;;;;;;;;;5072232;28;20037;-77
2022/08/24 14:53:28;;;;;;;3.50;1.40;;;;;;;;;;5072037;28;20029;-81
2022/08/24 14:56:15;;;;;;;3.25;1.65;;;;;;;;;;5061115;28;20024;-76
2022/08/24 14:58:45;;;;;;;2.88;1.65;;;;;;;;;;5071930;28;20074;-80
2022/08/24 15:01:13;;;;;;;2.95;1.60;;;;;;;;;;5072246;28;20458;-81
2022/08/24 15:04:17;;;;;;;2.85;1.40;;;;;;;;;;5071879;28;20029;-81
2022/08/24 15:06:52;;;;;;;2.50;1.50;;;;;;;;;;5072239;28;20053;-75
2022/08/24 15:09:23;;;;;;;3.47;1.50;;;;;;;;;;5072884;28;20033;-76
2022/08/24 15:11:54;;;;;;;2.92;1.60;;;;;;;;;;5072087;28;20063;-82
2022/08/24 15:14:40;;;;;;;4.47;1.60;;;;;;;;;;5071947;28;20077;-76
2022/08/24 15:17:12;;;;;;;2.03;1.52;;;;;;;;;;5056237;28;20028;-76
2022/08/24 15:19:56;;;;;;;3.58;1.40;;;;;;;;;;5071648;28;20392;-76
2022/08/24 15:22:34;;;;;;;3.53;1.60;;;;;;;;;;5072730;28;20027;-76
2022/08/24 15:25:10;;;;;;;2.63;1.35;;;;;;;;;;5073118;28;20103;-82